createdAt,value
2023-04-27T00:02:12.666Z,8.15
2023-04-27T00:05:15.280Z,8.00
2023-04-27T00:08:17.726Z,7.88
2023-04-27T00:11:20.019Z,7.70
2023-04-27T00:14:22.387Z,7.56
2023-04-27T00:17:24.746Z,7.63
2023-04-27T00:20:27.093Z,7.51
2023-04-27T00:23:29.391Z,7.64
2023-04-27T00:26:31.825Z,7.80
2023-04-27T00:29:35.277Z,7.92
2023-04-27T00:32:37.642Z,8.03
2023-04-27T00:35:40.018Z,8.21
2023-04-27T00:38:43.052Z,8.32
2023-04-27T00:41:45.762Z,8.37
2023-04-27T00:44:48.162Z,8.41
2023-04-27T00:47:50.942Z,8.40
2023-04-27T00:50:53.671Z,8.32
2023-04-27T00:53:59.204Z,8.21
2023-04-27T00:57:02.324Z,8.04
2023-04-27T01:00:07.200Z,8.03
2023-04-27T01:03:09.881Z,8.21
2023-04-27T01:06:12.337Z,8.24
2023-04-27T01:09:16.562Z,8.37
2023-04-27T01:12:18.943Z,8.40
2023-04-27T01:15:21.522Z,8.42
2023-04-27T01:18:23.937Z,8.30
2023-04-27T01:21:27.310Z,8.32
2023-04-27T01:24:29.677Z,8.53
2023-04-27T01:27:32.971Z,8.58
2023-04-27T01:30:35.436Z,8.65
2023-04-27T01:33:38.414Z,8.06
2023-04-27T01:36:41.966Z,8.48
2023-04-27T01:39:44.483Z,8.36
2023-04-27T01:42:46.821Z,8.55
2023-04-27T01:45:49.199Z,8.47
2023-04-27T01:48:51.601Z,8.52
2023-04-27T01:51:53.965Z,8.40
2023-04-27T01:54:56.366Z,8.33
2023-04-27T01:57:58.812Z,8.10
2023-04-27T02:01:01.157Z,7.97
2023-04-27T02:04:05.020Z,7.84
2023-04-27T02:07:07.538Z,7.59
2023-04-27T02:10:11.043Z,7.58
2023-04-27T02:13:13.441Z,7.54
2023-04-27T02:16:16.029Z,7.47
2023-04-27T02:19:18.389Z,7.37
2023-04-27T02:22:20.881Z,7.22
2023-04-27T02:25:23.270Z,7.17
2023-04-27T02:28:25.633Z,7.11
2023-04-27T02:31:29.249Z,7.01
2023-04-27T02:34:31.640Z,6.76
2023-04-27T02:37:34.844Z,6.49
2023-04-27T02:40:37.480Z,6.47
2023-04-27T02:43:42.004Z,6.33
2023-04-27T02:46:44.416Z,6.02
2023-04-27T02:49:46.878Z,6.04
2023-04-27T02:52:49.262Z,6.06
2023-04-27T02:55:52.076Z,6.14
2023-04-27T02:58:54.401Z,6.18
2023-04-27T03:01:56.834Z,6.17
2023-04-27T03:04:59.439Z,6.26
2023-04-27T03:08:02.070Z,6.35
2023-04-27T03:11:04.435Z,6.47
2023-04-27T03:14:06.796Z,6.48
2023-04-27T03:17:10.508Z,6.53
2023-04-27T03:20:13.041Z,6.62
2023-04-27T03:23:15.449Z,6.70
2023-04-27T03:26:17.809Z,6.78
2023-04-27T03:29:20.228Z,6.76
2023-04-27T03:32:22.612Z,6.73
2023-04-27T03:35:25.007Z,6.88
2023-04-27T03:38:27.498Z,6.89
2023-04-27T03:41:29.802Z,6.81
2023-04-27T03:44:33.642Z,6.81
2023-04-27T03:47:35.988Z,6.76
2023-04-27T03:50:38.311Z,6.60
2023-04-27T03:53:40.807Z,6.60
2023-04-27T03:56:44.818Z,6.48
2023-04-27T03:59:47.287Z,6.47
2023-04-27T04:02:49.845Z,6.37
2023-04-27T04:05:52.393Z,6.36
2023-04-27T04:08:55.039Z,6.65
2023-04-27T04:11:57.995Z,9.08
2023-04-27T04:15:00.344Z,10.69
2023-04-27T04:18:03.399Z,11.84
2023-04-27T04:21:05.969Z,12.47
2023-04-27T04:24:08.372Z,13.18
2023-04-27T04:27:10.788Z,13.63
2023-04-27T04:30:13.487Z,13.75
2023-04-27T04:33:17.011Z,14.26
2023-04-27T04:36:19.579Z,13.44
2023-04-27T04:39:21.911Z,12.29
2023-04-27T04:42:24.272Z,11.37
2023-04-27T04:45:27.136Z,10.63
2023-04-27T04:48:29.643Z,10.20
2023-04-27T04:51:32.028Z,9.70
2023-04-27T04:54:34.510Z,9.68
2023-04-27T04:57:36.887Z,9.80
2023-04-27T05:00:39.282Z,9.82
2023-04-27T05:03:41.755Z,9.45
2023-04-27T05:06:44.195Z,9.39
2023-04-27T05:09:46.569Z,9.56
2023-04-27T05:12:48.913Z,9.55
2023-04-27T05:15:52.075Z,9.63
2023-04-27T05:18:54.899Z,9.78
2023-04-27T05:22:00.724Z,9.65
2023-04-27T05:25:03.964Z,9.96
2023-04-27T05:28:06.354Z,9.98
2023-04-27T05:31:08.945Z,9.93
2023-04-27T05:34:11.355Z,10.13
2023-04-27T05:37:14.264Z,10.14
2023-04-27T05:40:17.102Z,10.06
2023-04-27T05:43:19.592Z,9.91
2023-04-27T05:46:27.607Z,9.97
2023-04-27T05:49:30.029Z,9.98
2023-04-27T05:52:32.386Z,9.91
2023-04-27T05:55:41.108Z,9.90
2023-04-27T05:58:44.103Z,9.92
2023-04-27T06:01:46.442Z,9.82
2023-04-27T06:04:48.813Z,10.07
2023-04-27T06:07:51.898Z,10.17
2023-04-27T06:10:54.281Z,10.13
2023-04-27T06:13:57.073Z,10.39
2023-04-27T06:16:59.474Z,10.59
2023-04-27T06:20:01.837Z,10.59
2023-04-27T06:23:04.164Z,10.77
2023-04-27T06:26:06.564Z,10.83
2023-04-27T06:29:08.997Z,10.86
2023-04-27T06:32:11.882Z,10.89
2023-04-27T06:35:17.814Z,11.16
2023-04-27T06:38:20.198Z,11.35
2023-04-27T06:41:26.354Z,11.48
2023-04-27T06:44:28.690Z,11.80
2023-04-27T06:47:31.178Z,11.74
2023-04-27T06:50:33.533Z,11.89
2023-04-27T06:53:35.960Z,11.79
2023-04-27T06:56:38.525Z,11.84
2023-04-27T06:59:40.983Z,11.75
2023-04-27T07:02:43.976Z,11.99
2023-04-27T07:05:46.783Z,12.13
2023-04-27T07:08:49.111Z,12.27
2023-04-27T07:11:51.543Z,12.40
2023-04-27T07:14:53.919Z,12.59
2023-04-27T07:17:56.470Z,12.75
2023-04-27T07:20:58.837Z,12.73
2023-04-27T07:24:01.232Z,12.88
2023-04-27T07:27:04.156Z,12.97
2023-04-27T07:30:09.456Z,13.16
2023-04-27T07:33:11.825Z,13.46
2023-04-27T07:36:14.166Z,13.43
2023-04-27T07:39:16.855Z,13.68
2023-04-27T07:42:19.661Z,13.86
2023-04-27T07:45:22.434Z,13.77
2023-04-27T07:48:25.137Z,13.85
2023-04-27T07:51:28.881Z,14.11
2023-04-27T07:54:31.655Z,14.07
2023-04-27T07:57:34.094Z,14.01
2023-04-27T08:00:36.562Z,14.25
2023-04-27T08:03:39.188Z,14.25
2023-04-27T08:06:42.105Z,14.46
2023-04-27T08:09:44.750Z,14.59
2023-04-27T08:12:47.097Z,14.44
2023-04-27T08:15:49.546Z,14.49
2023-04-27T08:18:52.131Z,14.56
2023-04-27T08:21:54.434Z,14.67
2023-04-27T08:24:56.830Z,14.83
2023-04-27T08:27:59.169Z,15.07
2023-04-27T08:31:01.969Z,15.09
2023-04-27T08:34:04.368Z,15.12
2023-04-27T08:37:07.012Z,15.16
2023-04-27T08:40:10.060Z,15.19
2023-04-27T08:43:12.437Z,15.01
2023-04-27T08:46:14.852Z,15.44
2023-04-27T08:49:17.806Z,15.50
2023-04-27T08:52:20.268Z,15.75
2023-04-27T08:55:23.710Z,15.81
2023-04-27T08:58:39.413Z,15.65
2023-04-27T09:01:49.162Z,15.72
2023-04-27T09:04:52.114Z,15.89
2023-04-27T09:08:05.798Z,15.96
2023-04-27T09:11:08.313Z,15.97
2023-04-27T09:14:17.759Z,16.30
2023-04-27T09:17:24.993Z,16.39
2023-04-27T09:20:27.509Z,16.59
2023-04-27T09:23:30.495Z,16.68
2023-04-27T09:26:32.848Z,16.75
2023-04-27T09:29:38.911Z,16.85
2023-04-27T10:07:49.604Z,18.58
2023-04-27T10:10:53.379Z,18.33
2023-04-27T10:13:55.974Z,18.56
2023-04-27T10:16:59.771Z,18.77
2023-04-27T10:20:09.979Z,18.87
2023-04-27T10:23:22.857Z,18.70
2023-04-27T10:26:28.355Z,18.95
2023-04-27T10:29:36.855Z,18.98
2023-04-27T10:32:58.677Z,18.57
2023-04-27T10:36:01.123Z,18.57
2023-04-27T10:39:05.457Z,18.35
2023-04-27T10:42:08.064Z,17.81
2023-04-27T10:45:11.560Z,17.88
2023-04-27T10:48:16.797Z,17.34
2023-04-27T10:51:19.168Z,17.82
2023-04-27T10:54:21.559Z,19.04
2023-04-27T10:57:23.901Z,19.21
2023-04-27T11:00:39.419Z,18.86
2023-04-27T11:03:44.598Z,19.11
2023-04-27T11:06:47.164Z,19.75
2023-04-27T11:09:49.588Z,19.85
2023-04-27T11:12:51.918Z,20.00
2023-04-27T11:15:56.215Z,20.31
2023-04-27T11:19:04.732Z,19.82
2023-04-27T11:22:07.152Z,19.41
2023-04-27T11:25:09.538Z,19.12
2023-04-27T11:28:22.053Z,19.66
2023-04-27T11:31:24.801Z,20.28
2023-04-27T11:34:27.519Z,20.02
2023-04-27T11:37:29.862Z,19.46
2023-04-27T11:40:34.553Z,19.56
2023-04-27T11:43:41.616Z,19.60
2023-04-27T11:46:44.800Z,19.98
2023-04-27T11:49:48.922Z,20.63
2023-04-27T11:52:51.810Z,21.49
2023-04-27T11:55:54.455Z,21.20
2023-04-27T11:58:56.818Z,20.16
2023-04-27T12:02:00.321Z,19.45
2023-04-27T12:05:03.678Z,19.32
2023-04-27T12:08:06.825Z,18.95
2023-04-27T12:11:09.229Z,19.07
2023-04-27T12:14:11.737Z,19.37
2023-04-27T12:17:14.272Z,20.36
2023-04-27T12:20:16.696Z,20.19
2023-04-27T12:23:19.065Z,20.45
2023-04-27T12:26:21.610Z,20.24
2023-04-27T12:29:24.623Z,21.07
2023-04-27T12:32:28.049Z,21.38
2023-04-27T12:35:32.245Z,21.59
2023-04-27T12:38:34.642Z,20.84
2023-04-27T12:41:37.014Z,20.35
2023-04-27T12:44:39.354Z,19.17
2023-04-27T12:47:58.267Z,19.15
2023-04-27T12:51:05.136Z,19.91
2023-04-27T12:54:09.116Z,20.42
2023-04-27T12:57:12.237Z,20.80
2023-04-27T13:00:15.354Z,21.06
2023-04-27T13:03:17.855Z,21.40
2023-04-27T13:06:20.819Z,20.90
2023-04-27T13:09:23.186Z,20.19
2023-04-27T13:12:25.673Z,20.00
2023-04-27T13:15:28.651Z,19.26
2023-04-27T13:18:32.869Z,18.91
2023-04-27T13:21:36.857Z,19.37
2023-04-27T13:24:39.237Z,19.88
2023-04-27T13:27:41.628Z,19.14
2023-04-27T13:30:43.952Z,18.84
2023-04-27T13:33:46.356Z,19.25
2023-04-27T13:36:49.529Z,19.91
2023-04-27T13:39:52.165Z,19.89
2023-04-27T13:42:54.533Z,20.56
2023-04-27T13:46:00.769Z,19.94
2023-04-27T13:49:03.640Z,19.56
2023-04-27T13:52:06.068Z,19.28
2023-04-27T13:55:09.457Z,20.06
2023-04-27T13:58:12.012Z,18.93
2023-04-27T14:01:14.373Z,18.86
2023-04-27T14:04:16.856Z,19.29
2023-04-27T14:07:19.887Z,19.62
2023-04-27T14:10:25.280Z,19.89
2023-04-27T14:13:27.688Z,20.26
2023-04-27T14:16:30.124Z,20.23
2023-04-27T14:19:32.899Z,20.51
2023-04-27T14:22:35.603Z,20.72
2023-04-27T14:25:39.157Z,20.90
2023-04-27T14:28:41.541Z,20.82
2023-04-27T14:31:44.006Z,20.46
2023-04-27T14:34:46.462Z,20.58
2023-04-27T14:37:48.867Z,20.21
2023-04-27T14:40:51.177Z,20.41
2023-04-27T14:43:54.311Z,20.49
2023-04-27T14:46:56.699Z,20.21
2023-04-27T14:49:59.107Z,20.65
2023-04-27T14:53:01.887Z,20.66
2023-04-27T14:56:04.586Z,20.36
2023-04-27T14:59:07.094Z,20.63
2023-04-27T15:02:09.448Z,20.17
2023-04-27T15:05:11.913Z,20.31
2023-04-27T15:08:14.244Z,20.37
2023-04-27T15:11:16.658Z,20.13
2023-04-27T15:14:19.008Z,19.99
2023-04-27T15:17:21.438Z,20.21
2023-04-27T15:20:23.737Z,20.05
2023-04-27T15:23:26.892Z,19.72
2023-04-27T15:26:29.262Z,19.42
2023-04-27T15:29:31.614Z,19.50
2023-04-27T15:32:34.007Z,19.16
2023-04-27T15:35:38.969Z,18.85
2023-04-27T15:38:41.329Z,18.82
2023-04-27T15:41:44.750Z,19.09
2023-04-27T15:44:47.193Z,19.29
2023-04-27T15:47:49.613Z,19.22
2023-04-27T15:50:52.054Z,19.01
2023-04-27T15:53:54.410Z,18.96
2023-04-27T15:56:56.853Z,18.73
2023-04-27T15:59:59.303Z,18.57
2023-04-27T16:03:01.993Z,18.30
2023-04-27T16:06:04.649Z,18.57
2023-04-27T16:09:10.446Z,18.50
2023-04-27T16:12:13.053Z,18.22
2023-04-27T16:15:15.432Z,17.89
2023-04-27T16:18:17.826Z,17.86
2023-04-27T16:21:20.169Z,17.71
2023-04-27T16:24:22.484Z,17.90
2023-04-27T16:27:25.661Z,17.80
2023-04-27T16:30:28.002Z,17.71
2023-04-27T16:33:30.351Z,17.62
2023-04-27T16:36:35.470Z,17.63
2023-04-27T16:39:38.133Z,17.50
2023-04-27T16:42:40.813Z,17.35
2023-04-27T16:45:43.311Z,17.35
2023-04-27T16:48:45.770Z,17.09
2023-04-27T16:51:48.145Z,17.03
2023-04-27T16:54:50.517Z,16.92
2023-04-27T16:57:52.876Z,16.87
2023-04-27T17:00:55.594Z,16.82
2023-04-27T17:03:58.604Z,16.54
2023-04-27T17:07:01.535Z,16.46
2023-04-27T17:10:05.684Z,16.38
2023-04-27T17:13:10.650Z,16.34
2023-04-27T17:16:13.673Z,16.33
2023-04-27T17:19:16.306Z,16.25
2023-04-27T17:22:18.712Z,15.75
2023-04-27T17:25:21.157Z,15.99
2023-04-27T17:28:23.530Z,15.91
2023-04-27T17:31:26.381Z,15.71
2023-04-27T17:34:28.796Z,15.57
2023-04-27T17:37:31.375Z,15.40
2023-04-27T17:40:33.706Z,15.17
2023-04-27T17:43:37.706Z,14.96
2023-04-27T17:46:45.752Z,14.87
2023-04-27T17:49:48.121Z,14.76
2023-04-27T17:52:51.439Z,14.58
2023-04-27T17:55:53.812Z,14.55
2023-04-27T17:58:56.139Z,14.49
2023-04-27T18:01:58.824Z,14.41
2023-04-27T18:05:01.253Z,14.27
2023-04-27T18:08:03.672Z,14.18
2023-04-27T18:11:06.884Z,14.05
2023-04-27T18:14:09.248Z,13.87
2023-04-27T18:17:11.646Z,13.82
2023-04-27T18:20:15.641Z,13.78
2023-04-27T18:23:18.001Z,13.71
2023-04-27T18:26:20.397Z,13.68
2023-04-27T18:29:22.704Z,13.58
2023-04-27T18:32:25.124Z,13.40
2023-04-27T18:35:27.548Z,13.18
2023-04-27T18:38:29.892Z,12.83
2023-04-27T18:41:32.382Z,12.67
2023-04-27T18:44:34.775Z,12.64
2023-04-27T18:47:37.208Z,12.61
2023-04-27T18:50:39.601Z,12.57
2023-04-27T18:53:41.971Z,12.68
2023-04-27T18:56:44.283Z,12.68
2023-04-27T18:59:46.910Z,12.77
2023-04-27T19:02:49.355Z,12.75
2023-04-27T19:05:52.839Z,12.70
2023-04-27T19:08:55.828Z,12.66
2023-04-27T19:12:02.997Z,12.71
2023-04-27T19:15:07.622Z,12.66
2023-04-27T19:18:11.646Z,12.62
2023-04-27T19:21:14.348Z,12.54
2023-04-27T19:24:17.385Z,12.53
2023-04-27T19:27:19.773Z,12.47
2023-04-27T19:30:22.183Z,12.50
2023-04-27T19:33:24.933Z,12.43
2023-04-27T19:36:28.194Z,12.41
2023-04-27T19:39:32.370Z,12.38
2023-04-27T19:42:36.604Z,12.17
2023-04-27T19:45:39.748Z,11.94
2023-04-27T19:48:42.539Z,11.96
2023-04-27T19:51:44.960Z,11.90
2023-04-27T19:54:52.256Z,11.86
2023-04-27T19:57:54.628Z,11.84
2023-04-27T20:00:56.970Z,11.78
2023-04-27T20:03:59.496Z,11.68
2023-04-27T20:07:03.733Z,11.66
2023-04-27T20:10:07.750Z,11.71
2023-04-27T20:13:10.131Z,11.58
2023-04-27T20:16:13.030Z,11.54
2023-04-27T20:19:17.931Z,11.54
2023-04-27T20:22:20.246Z,11.39
2023-04-27T20:25:23.023Z,11.27
2023-04-27T20:28:25.366Z,11.25
2023-04-27T20:31:27.727Z,11.21
2023-04-27T20:34:30.108Z,11.16
2023-04-27T20:37:32.515Z,11.13
2023-04-27T20:40:34.992Z,11.08
2023-04-27T20:43:39.183Z,10.90
2023-04-27T20:46:41.630Z,10.88
2023-04-27T20:49:44.058Z,10.94
2023-04-27T20:52:47.116Z,10.92
2023-04-27T20:55:49.753Z,10.88
2023-04-27T20:58:52.306Z,10.86
2023-04-27T21:01:54.637Z,10.70
2023-04-27T21:04:57.177Z,10.70
2023-04-27T21:07:59.562Z,10.52
2023-04-27T21:11:01.948Z,10.42
2023-04-27T21:14:04.300Z,10.31
2023-04-27T21:17:06.653Z,10.17
2023-04-27T21:20:09.966Z,10.08
2023-04-27T21:23:14.774Z,10.06
2023-04-27T21:26:17.130Z,9.97
2023-04-27T21:29:19.450Z,9.99
2023-04-27T21:32:21.777Z,9.96
2023-04-27T21:35:24.135Z,9.92
2023-04-27T21:38:26.772Z,9.93
2023-04-27T21:41:29.151Z,10.00
2023-04-27T21:44:31.462Z,9.99
2023-04-27T21:47:33.828Z,9.60
2023-04-27T21:50:36.369Z,9.94
2023-04-27T21:53:38.680Z,9.91
2023-04-27T21:56:41.127Z,9.93
2023-04-27T21:59:43.633Z,9.96
2023-04-27T22:02:46.298Z,9.92
2023-04-27T22:05:52.873Z,9.77
2023-04-27T22:08:55.431Z,9.74
2023-04-27T22:11:57.935Z,9.62
2023-04-27T22:15:00.444Z,9.55
2023-04-27T22:18:06.848Z,9.37
2023-04-27T22:21:10.301Z,9.35
2023-04-27T22:24:12.939Z,9.25
2023-04-27T22:27:15.458Z,9.18
2023-04-27T22:30:17.996Z,9.15
2023-04-27T22:33:20.523Z,9.03
2023-04-27T22:36:22.998Z,9.04
2023-04-27T22:39:25.846Z,8.92
2023-04-27T22:42:28.333Z,8.94
2023-04-27T22:45:30.871Z,8.94
2023-04-27T22:48:33.680Z,8.90
2023-04-27T22:51:36.775Z,8.99
2023-04-27T22:54:39.281Z,9.05
2023-04-27T22:57:42.011Z,9.02
2023-04-27T23:00:44.576Z,8.92
2023-04-27T23:03:47.224Z,8.95
2023-04-27T23:06:50.129Z,8.93
2023-04-27T23:09:53.110Z,8.93
2023-04-27T23:12:57.158Z,8.96
2023-04-27T23:15:59.723Z,8.98
2023-04-27T23:19:02.302Z,8.81
2023-04-27T23:22:04.788Z,8.66
2023-04-27T23:25:07.628Z,8.47
2023-04-27T23:28:10.106Z,8.51
2023-04-27T23:31:12.727Z,8.43
2023-04-27T23:34:15.840Z,8.46
2023-04-27T23:37:18.645Z,8.47
2023-04-27T23:40:21.276Z,8.40
2023-04-27T23:43:23.747Z,8.42
2023-04-27T23:46:26.334Z,8.28
2023-04-27T23:49:28.829Z,8.30
2023-04-27T23:52:31.320Z,8.30
2023-04-27T23:55:37.182Z,8.21
2023-04-27T23:58:39.632Z,8.18
